createdAt,value
2019-06-08T00:00:20.841Z,100260.22
2019-06-08T00:02:50.241Z,100267.09
2019-06-08T00:05:20.945Z,100277.15
2019-06-08T00:07:50.408Z,100252.60
2019-06-08T00:10:23.731Z,100234.59
2019-06-08T00:12:51.574Z,100254.95
2019-06-08T00:15:22.329Z,100252.49
2019-06-08T00:17:51.740Z,100265.25
2019-06-08T00:20:21.876Z,100258.27
2019-06-08T00:22:51.232Z,100263.05
2019-06-08T00:25:20.894Z,100244.44
2019-06-08T00:27:51.366Z,100258.89
2019-06-08T00:30:20.679Z,100248.20
2019-06-08T00:32:49.865Z,100253.95
2019-06-08T00:35:19.092Z,100257.65
2019-06-08T00:37:48.295Z,100261.18
2019-06-08T00:40:18.862Z,100278.29
2019-06-08T00:42:49.072Z,100265.72
2019-06-08T00:45:19.877Z,100267.28
2019-06-08T00:47:49.257Z,100261.88
2019-06-08T00:50:20.819Z,100265.41
2019-06-08T00:52:50.267Z,100268.97
2019-06-08T00:55:19.529Z,100267.87
2019-06-08T00:57:48.739Z,100262.22
2019-06-08T01:00:18.370Z,100262.38
2019-06-08T01:02:47.569Z,100267.77
2019-06-08T01:05:17.787Z,100273.63
2019-06-08T01:07:47.113Z,100265.45
2019-06-08T01:10:17.126Z,100282.00
2019-06-08T01:12:46.300Z,100281.79
2019-06-08T01:15:16.821Z,100273.70
2019-06-08T01:17:59.140Z,100278.84
2019-06-08T01:20:17.301Z,100277.65
2019-06-08T01:22:46.508Z,100284.39
2019-06-08T01:25:15.767Z,100271.37
2019-06-08T01:27:44.987Z,100298.20
2019-06-08T01:30:14.711Z,100298.83
2019-06-08T01:32:43.887Z,100290.86
2019-06-08T01:35:13.169Z,100288.77
2019-06-08T01:37:42.347Z,100298.34
2019-06-08T01:40:11.830Z,100300.70
2019-06-08T01:42:41.021Z,100289.50
2019-06-08T01:45:12.389Z,100297.09
2019-06-08T01:47:41.567Z,100294.89
2019-06-08T01:50:10.899Z,100294.77
2019-06-08T01:52:40.101Z,100295.50
2019-06-08T01:55:09.423Z,100297.34
2019-06-08T01:57:38.618Z,100298.82
2019-06-08T02:00:29.162Z,100296.12
2019-06-08T02:02:39.623Z,100293.87
2019-06-08T02:05:08.960Z,100297.55
2019-06-08T02:07:38.229Z,100301.11
2019-06-08T02:10:08.631Z,100303.16
2019-06-08T02:12:37.885Z,100311.36
2019-06-08T02:15:08.370Z,100307.09
2019-06-08T02:17:37.555Z,100310.69
2019-06-08T02:20:07.692Z,100317.27
2019-06-08T02:22:37.002Z,100320.27
2019-06-08T02:25:07.647Z,100329.09
2019-06-08T02:27:37.426Z,100312.28
2019-06-08T02:30:15.812Z,100306.14
2019-06-08T02:32:44.987Z,100317.03
2019-06-08T02:35:15.526Z,100343.78
2019-06-08T02:37:44.764Z,100334.34
2019-06-08T02:40:14.591Z,100353.97
2019-06-08T02:42:43.806Z,100348.59
2019-06-08T02:45:14.229Z,100358.02
2019-06-08T02:47:43.404Z,100374.06
2019-06-08T02:50:14.223Z,100359.96
2019-06-08T02:52:44.779Z,100359.74
2019-06-08T02:55:13.968Z,100358.97
2019-06-08T02:57:44.195Z,100361.38
2019-06-08T03:00:14.209Z,100366.98
2019-06-08T03:02:49.091Z,100377.67
2019-06-08T03:05:20.012Z,100370.70
2019-06-08T03:07:51.708Z,100386.30
2019-06-08T03:10:21.056Z,100390.27
2019-06-08T03:12:51.942Z,100407.41
2019-06-08T03:15:33.878Z,100387.42
2019-06-08T03:18:01.356Z,100388.33
2019-06-08T03:20:31.648Z,100389.97
2019-06-08T03:23:00.909Z,100385.54
2019-06-08T03:25:30.094Z,100378.61
2019-06-08T03:27:59.307Z,100391.95
2019-06-08T03:30:28.457Z,100400.87
2019-06-08T03:32:57.666Z,100413.51
2019-06-08T03:35:26.876Z,100396.39
2019-06-08T03:37:56.130Z,100410.75
2019-06-08T03:40:25.313Z,100409.02
2019-06-08T03:42:58.027Z,100412.49
2019-06-08T03:45:27.441Z,100413.84
2019-06-08T03:47:56.636Z,100413.09
2019-06-08T03:50:25.813Z,100414.25
2019-06-08T03:53:02.000Z,100438.83
2019-06-08T03:55:31.183Z,100441.91
2019-06-08T03:58:00.375Z,100438.94
2019-06-08T04:00:29.584Z,100446.91
2019-06-08T04:02:58.688Z,100450.14
2019-06-08T04:05:27.872Z,100452.75
2019-06-08T04:07:57.062Z,100455.89
2019-06-08T04:10:26.247Z,100464.88
2019-06-08T04:12:55.426Z,100487.98
2019-06-08T04:15:25.295Z,100498.80
2019-06-08T04:17:54.513Z,100468.91
2019-06-08T04:20:23.794Z,100488.22
2019-06-08T04:22:53.060Z,100486.48
2019-06-08T04:25:22.248Z,100486.17
2019-06-08T04:27:51.459Z,100482.45
2019-06-08T04:30:20.857Z,100489.88
2019-06-08T04:32:50.045Z,100486.83
2019-06-08T04:35:19.216Z,100480.00
2019-06-08T04:37:48.390Z,100495.05
2019-06-08T04:40:17.721Z,100510.46
2019-06-08T04:42:49.359Z,100514.50
2019-06-08T04:45:17.792Z,100519.50
2019-06-08T04:47:48.257Z,100504.58
2019-06-08T04:50:23.456Z,100525.95
2019-06-08T04:52:49.980Z,100530.20
2019-06-08T04:55:19.458Z,100527.02
2019-06-08T04:57:50.702Z,100541.87
2019-06-08T05:00:19.845Z,100540.77
2019-06-08T05:02:51.090Z,100529.81
2019-06-08T05:05:19.947Z,100553.69
2019-06-08T05:07:50.297Z,100552.98
2019-06-08T05:10:19.808Z,100540.38
2019-06-08T05:12:50.171Z,100557.67
2019-06-08T05:15:19.840Z,100557.51
2019-06-08T05:17:49.720Z,100565.55
2019-06-08T05:20:19.075Z,100557.83
2019-06-08T05:22:49.676Z,100550.34
2019-06-08T05:25:19.022Z,100587.45
2019-06-08T05:27:49.469Z,100574.78
2019-06-08T05:30:19.376Z,100591.26
2019-06-08T05:32:49.661Z,100575.23
2019-06-08T05:35:19.349Z,100582.89
2019-06-08T05:37:49.716Z,100586.20
2019-06-08T05:40:19.443Z,100585.64
2019-06-08T05:42:49.838Z,100604.91
2019-06-08T05:45:19.464Z,100614.88
2019-06-08T05:47:50.085Z,100607.98
2019-06-08T05:50:19.523Z,100611.80
2019-06-08T05:52:50.172Z,100607.89
2019-06-08T05:55:19.584Z,100630.41
2019-06-08T05:57:48.769Z,100619.93
2019-06-08T06:00:18.198Z,100623.37
2019-06-08T06:02:47.431Z,100627.77
2019-06-08T06:05:17.128Z,100629.85
2019-06-08T06:07:46.772Z,100642.27
2019-06-08T06:10:16.422Z,100662.52
2019-06-08T06:12:46.853Z,100652.30
2019-06-08T06:15:16.388Z,100654.09
2019-06-08T06:17:51.536Z,100656.20
2019-06-08T06:20:21.090Z,100651.00
2019-06-08T06:22:52.581Z,100656.30
2019-06-08T06:25:21.167Z,100668.86
2019-06-08T06:27:51.814Z,100684.57
2019-06-08T06:30:21.265Z,100688.55
2019-06-08T06:32:50.452Z,100681.37
2019-06-08T06:35:20.212Z,100685.58
2019-06-08T06:37:50.243Z,100692.89
2019-06-08T06:40:19.471Z,100696.73
2019-06-08T06:42:49.955Z,100704.27
2019-06-08T06:45:19.679Z,100702.83
2019-06-08T06:47:50.363Z,100713.20
2019-06-08T06:50:21.664Z,100708.31
2019-06-08T06:52:52.847Z,100713.86
2019-06-08T06:55:25.234Z,100709.78
2019-06-08T06:57:53.553Z,100725.97
2019-06-08T07:00:32.999Z,100726.89
2019-06-08T07:03:02.378Z,100740.59
2019-06-08T07:05:31.543Z,100728.50
2019-06-08T07:08:00.723Z,100737.13
2019-06-08T07:10:29.948Z,100750.28
2019-06-08T07:12:59.196Z,100760.19
2019-06-08T07:15:29.334Z,100766.52
2019-06-08T07:17:58.894Z,100743.30
2019-06-08T07:20:28.154Z,100765.91
2019-06-08T07:22:57.336Z,100756.58
2019-06-08T07:25:26.561Z,100766.00
2019-06-08T07:27:55.717Z,100763.90
2019-06-08T07:30:25.426Z,100761.20
2019-06-08T07:32:55.133Z,100781.84
2019-06-08T07:35:24.407Z,100766.37
2019-06-08T07:37:53.733Z,100770.97
2019-06-08T07:40:23.020Z,100772.31
2019-06-08T07:42:53.390Z,100774.73
2019-06-08T07:45:23.161Z,100774.32
2019-06-08T07:47:54.003Z,100785.94
2019-06-08T07:50:23.252Z,100778.46
2019-06-08T07:52:52.886Z,100794.03
2019-06-08T07:55:22.071Z,100796.73
2019-06-08T07:57:52.232Z,100794.71
2019-06-08T08:00:22.070Z,100789.72
2019-06-08T08:02:52.075Z,100789.98
2019-06-08T08:05:21.317Z,100798.83
2019-06-08T08:07:50.513Z,100802.36
2019-06-08T08:10:21.805Z,100788.42
2019-06-08T08:12:51.019Z,100801.16
2019-06-08T08:15:20.289Z,100802.48
2019-06-08T08:17:51.917Z,100799.67
2019-06-08T08:20:20.503Z,100806.31
2019-06-08T08:22:54.412Z,100800.73
2019-06-08T08:25:20.592Z,100806.35
2019-06-08T08:27:50.732Z,100818.80
2019-06-08T08:30:22.115Z,100806.21
2019-06-08T08:32:52.664Z,100819.23
2019-06-08T08:35:22.181Z,100819.43
2019-06-08T08:37:55.470Z,100835.80
2019-06-08T08:40:22.300Z,100839.47
2019-06-08T08:42:52.368Z,100835.15
2019-06-08T08:45:22.446Z,100837.52
2019-06-08T08:48:00.008Z,100848.28
2019-06-08T08:50:22.724Z,100858.47
2019-06-08T08:52:52.368Z,100847.09
2019-06-08T08:55:21.651Z,100878.86
2019-06-08T08:57:52.180Z,100849.17
2019-06-08T09:00:22.041Z,100876.13
2019-06-08T09:03:10.886Z,100893.41
2019-06-08T09:05:22.369Z,100890.65
2019-06-08T09:07:52.551Z,100908.36
2019-06-08T09:10:22.770Z,100902.05
2019-06-08T09:12:53.473Z,100910.71
2019-06-08T09:15:23.688Z,100904.26
2019-06-08T09:17:53.851Z,100937.46
2019-06-08T09:20:23.226Z,100936.97
2019-06-08T09:23:00.759Z,100921.47
2019-06-08T09:25:23.345Z,100937.64
2019-06-08T09:27:53.249Z,100953.50
2019-06-08T09:30:23.695Z,100942.27
2019-06-08T09:32:54.344Z,100954.09
2019-06-08T09:35:23.591Z,100950.35
2019-06-08T09:37:54.518Z,100960.19
2019-06-08T09:40:26.628Z,100976.53
2019-06-08T09:42:59.134Z,100978.24
2019-06-08T09:45:28.800Z,100972.47
2019-06-08T09:48:00.442Z,100993.83
2019-06-08T09:50:28.397Z,100989.63
2019-06-08T09:53:14.777Z,100996.95
2019-06-08T09:55:28.881Z,101010.98
2019-06-08T09:58:01.864Z,101005.40
2019-06-08T10:00:29.807Z,101004.44
2019-06-08T10:03:02.460Z,100999.90
2019-06-08T10:05:30.215Z,101024.98
2019-06-08T10:08:02.138Z,101029.72
2019-06-08T10:10:30.207Z,101025.95
2019-06-08T10:13:01.756Z,101031.45
2019-06-08T10:15:30.317Z,101051.30
2019-06-08T10:18:00.910Z,101041.58
2019-06-08T10:20:30.886Z,101053.05
2019-06-08T10:23:03.099Z,101055.16
2019-06-08T10:25:31.098Z,101024.45
2019-06-08T10:28:06.750Z,101062.36
2019-06-08T10:30:31.235Z,101073.28
2019-06-08T10:33:02.152Z,101091.16
2019-06-08T10:35:31.319Z,101092.66
2019-06-08T10:38:05.047Z,101081.98
2019-06-08T10:40:31.388Z,101083.65
2019-06-08T10:43:01.469Z,101088.40
2019-06-08T10:45:32.421Z,101127.30
2019-06-08T10:48:03.237Z,101118.69
2019-06-08T10:50:32.482Z,101139.47
2019-06-08T10:53:04.051Z,101124.27
2019-06-08T10:55:32.570Z,101118.56
2019-06-08T10:58:02.362Z,101138.04
2019-06-08T11:00:39.634Z,101132.55
2019-06-08T11:03:10.601Z,101150.12
2019-06-08T11:05:39.790Z,101147.64
2019-06-08T11:08:14.109Z,101157.88
2019-06-08T11:10:39.966Z,101155.80
2019-06-08T11:13:14.999Z,101162.66
2019-06-08T11:15:39.969Z,101144.77
2019-06-08T11:18:12.629Z,101180.91
2019-06-08T11:20:40.023Z,101218.94
2019-06-08T11:23:12.271Z,101210.89
2019-06-08T11:25:40.103Z,101210.67
2019-06-08T11:28:14.860Z,101206.91
2019-06-08T11:30:40.158Z,101212.50
2019-06-08T11:33:11.219Z,101224.73
2019-06-08T11:35:40.227Z,101215.30
2019-06-08T11:38:12.593Z,101225.70
2019-06-08T11:40:40.310Z,101197.19
2019-06-08T11:43:10.589Z,101221.65
2019-06-08T11:45:39.858Z,101218.19
2019-06-08T11:48:09.052Z,101231.28
2019-06-08T11:50:42.109Z,101241.33
2019-06-08T11:53:14.368Z,101253.34
2019-06-08T11:55:43.983Z,101234.56
2019-06-08T11:58:13.896Z,101236.70
2019-06-08T12:00:55.107Z,101236.89
2019-06-08T12:03:24.401Z,101252.01
2019-06-08T12:05:53.658Z,101226.86
2019-06-08T12:08:22.906Z,101244.89
2019-06-08T12:10:52.078Z,101242.66
2019-06-08T12:13:21.241Z,101237.64
2019-06-08T12:15:50.774Z,101262.52
2019-06-08T12:18:19.965Z,101263.66
2019-06-08T12:20:49.141Z,101260.37
2019-06-08T12:23:18.415Z,101261.36
2019-06-08T12:25:47.591Z,101257.59
2019-06-08T12:28:17.849Z,101249.56
2019-06-08T12:30:47.847Z,101265.98
2019-06-08T12:33:19.203Z,101283.14
2019-06-08T12:35:48.066Z,101299.52
2019-06-08T12:38:19.000Z,101287.19
2019-06-08T12:40:48.639Z,101285.34
2019-06-08T12:43:20.217Z,101269.56
2019-06-08T12:45:50.521Z,101285.36
2019-06-08T12:48:24.907Z,101281.96
2019-06-08T12:50:50.621Z,101292.93
2019-06-08T12:53:22.643Z,101283.88
2019-06-08T12:55:52.508Z,101299.59
2019-06-08T12:58:22.088Z,101297.14
2019-06-08T13:00:51.518Z,101303.97
2019-06-08T13:03:20.696Z,101294.22
2019-06-08T13:05:49.869Z,101308.08
2019-06-08T13:08:21.524Z,101295.00
2019-06-08T13:10:49.982Z,101301.11
2019-06-08T13:13:24.240Z,101321.42
2019-06-08T13:15:50.052Z,101322.55
2019-06-08T13:18:21.212Z,101319.61
2019-06-08T13:20:51.798Z,101318.63
2019-06-08T13:23:21.392Z,101312.32
2019-06-08T13:25:50.687Z,101308.82
2019-06-08T13:28:25.031Z,101319.30
2019-06-08T13:30:50.750Z,101317.00
2019-06-08T13:33:20.259Z,101329.73
2019-06-08T13:35:49.615Z,101330.59
2019-06-08T13:38:20.484Z,101347.67
2019-06-08T13:40:49.718Z,101349.79
2019-06-08T13:43:21.230Z,101349.28
2019-06-08T13:45:51.517Z,101352.31
2019-06-08T13:48:22.035Z,101343.34
2019-06-08T13:50:52.285Z,101353.37
2019-06-08T13:53:27.296Z,101358.98
2019-06-08T13:55:56.472Z,101382.59
2019-06-08T13:58:29.711Z,101370.11
2019-06-08T14:00:56.765Z,101388.89
2019-06-08T14:03:28.154Z,101374.12
2019-06-08T14:05:57.324Z,101391.97
2019-06-08T14:08:32.736Z,101383.36
2019-06-08T14:11:00.913Z,101389.48
2019-06-08T14:13:34.186Z,101396.84
2019-06-08T14:16:00.314Z,101387.32
2019-06-08T14:18:33.930Z,101412.41
2019-06-08T14:21:00.489Z,101403.13
2019-06-08T14:23:29.705Z,101412.45
2019-06-08T14:26:00.255Z,101415.71
2019-06-08T14:28:30.392Z,101420.78
2019-06-08T14:30:59.690Z,101413.26
2019-06-08T14:33:33.013Z,101422.69
2019-06-08T14:35:59.739Z,101420.64
2019-06-08T14:38:35.870Z,101437.28
2019-06-08T14:40:59.815Z,101446.87
2019-06-08T14:43:31.220Z,101449.39
2019-06-08T14:45:59.976Z,101459.21
2019-06-08T14:48:33.486Z,101452.49
2019-06-08T14:51:00.030Z,101464.23
2019-06-08T14:53:29.224Z,101453.75
2019-06-08T14:56:05.633Z,101462.18
2019-06-08T14:58:34.567Z,101456.50
2019-06-08T15:01:00.284Z,101468.15
2019-06-08T15:03:29.596Z,101464.73
2019-06-08T15:05:58.772Z,101460.52
2019-06-08T15:08:29.491Z,101479.13
2019-06-08T15:10:58.884Z,101469.93
2019-06-08T15:13:28.669Z,101480.63
2019-06-08T15:16:00.671Z,101476.77
2019-06-08T15:18:30.513Z,101483.89
2019-06-08T15:21:01.141Z,101491.32
2019-06-08T15:23:32.660Z,101486.55
2019-06-08T15:26:01.242Z,101483.67
2019-06-08T15:28:35.489Z,101494.20
2019-06-08T15:31:01.332Z,101508.88
2019-06-08T15:33:33.579Z,101497.44
2019-06-08T15:36:01.414Z,101515.70
2019-06-08T15:38:32.430Z,101503.64
2019-06-08T15:41:01.414Z,101505.16
2019-06-08T15:43:34.490Z,101511.70
2019-06-08T15:46:01.608Z,101507.23
2019-06-08T15:48:32.287Z,101515.36
2019-06-08T15:51:01.968Z,101516.05
2019-06-08T15:53:32.463Z,101527.30
2019-06-08T15:56:02.043Z,101527.30
2019-06-08T15:58:32.805Z,101527.89
2019-06-08T16:01:02.128Z,101529.31
2019-06-08T16:03:31.752Z,101529.64
2019-06-08T16:06:00.985Z,101506.88
2019-06-08T16:08:30.336Z,101519.91
2019-06-08T16:10:59.547Z,101529.28
2019-06-08T16:13:28.738Z,101533.15
2019-06-08T16:15:57.896Z,101535.95
2019-06-08T16:18:27.408Z,101528.98
2019-06-08T16:20:56.659Z,101535.36
2019-06-08T16:23:27.376Z,101548.34
2019-06-08T16:25:57.031Z,101565.29
2019-06-08T16:28:26.187Z,101563.97
2019-06-08T16:30:55.374Z,101523.44
2019-06-08T16:33:27.415Z,101560.77
2019-06-08T16:35:56.589Z,101545.77
2019-06-08T16:38:25.772Z,101573.71
2019-06-08T16:40:54.961Z,101573.91
2019-06-08T16:43:26.877Z,101569.25
2019-06-08T16:45:55.033Z,101571.13
2019-06-08T16:48:42.138Z,101540.32
2019-06-08T16:51:29.440Z,101568.36
2019-06-08T16:53:58.632Z,101578.84
2019-06-08T16:56:27.813Z,101564.12
2019-06-08T16:58:57.002Z,101579.09
2019-06-08T17:01:44.459Z,101582.59
2019-06-08T17:04:13.724Z,101596.37
2019-06-08T17:06:42.919Z,101592.79
2019-06-08T17:09:12.157Z,101590.41
2019-06-08T17:11:41.369Z,101604.62
2019-06-08T17:14:10.581Z,101594.19
2019-06-08T17:16:40.607Z,101606.73
2019-06-08T17:19:09.857Z,101605.22
2019-06-08T17:21:40.374Z,101606.92
2019-06-08T17:24:10.652Z,101611.58
2019-06-08T17:26:40.784Z,101612.73
2019-06-08T17:29:10.194Z,101578.09
2019-06-08T17:31:39.398Z,101621.81
2019-06-08T17:34:08.637Z,101614.49
2019-06-08T17:36:38.593Z,101630.83
2019-06-08T17:39:07.867Z,101624.73
2019-06-08T17:41:38.174Z,101631.88
2019-06-08T17:44:07.425Z,101630.83
2019-06-08T17:46:36.611Z,101628.31
2019-06-08T17:49:25.052Z,101629.94
2019-06-08T17:51:54.176Z,101635.47
2019-06-08T17:54:24.996Z,101641.48
2019-06-08T17:56:54.175Z,101633.80
2019-06-08T17:59:23.364Z,101638.55
2019-06-08T18:01:52.614Z,101649.38
2019-06-08T18:04:21.837Z,101652.39
2019-06-08T18:06:50.993Z,101650.73
2019-06-08T18:09:22.922Z,101662.92
2019-06-08T18:11:52.095Z,101651.42
2019-06-08T18:14:21.311Z,101661.02
2019-06-08T18:16:50.481Z,101665.16
2019-06-08T18:19:28.033Z,101654.92
2019-06-08T18:22:02.841Z,101672.42
2019-06-08T18:24:28.085Z,101674.81
2019-06-08T18:26:58.768Z,101676.31
2019-06-08T18:29:27.983Z,101662.14
2019-06-08T18:31:58.129Z,101675.94
2019-06-08T18:34:29.015Z,101671.21
2019-06-08T18:36:58.237Z,101678.47
2019-06-08T18:39:30.042Z,101680.19
2019-06-08T18:41:59.261Z,101680.09
2019-06-08T18:44:28.732Z,101682.11
2019-06-08T18:46:58.348Z,101694.09
2019-06-08T18:49:28.940Z,101696.30
2019-06-08T18:51:58.462Z,101694.85
2019-06-08T18:54:28.036Z,101701.38
2019-06-08T18:56:57.683Z,101698.70
2019-06-08T18:59:28.695Z,101698.19
2019-06-08T19:01:57.985Z,101703.31
2019-06-08T19:04:30.936Z,101720.31
2019-06-08T19:07:01.866Z,101707.76
2019-06-08T19:09:32.208Z,101724.55
2019-06-08T19:12:01.379Z,101727.81
2019-06-08T19:14:30.645Z,101734.00
2019-06-08T19:16:59.834Z,101738.05
2019-06-08T19:19:31.544Z,101734.98
2019-06-08T19:21:59.920Z,101742.69
2019-06-08T19:24:29.110Z,101742.11
2019-06-08T19:26:58.298Z,101734.23
2019-06-08T19:29:28.287Z,101738.23
2019-06-08T19:32:00.591Z,101747.05
2019-06-08T19:34:33.029Z,101763.88
2019-06-08T19:36:59.205Z,101752.42
2019-06-08T19:39:28.775Z,101758.92
2019-06-08T19:41:59.867Z,101758.03
2019-06-08T19:44:29.300Z,101766.14
2019-06-08T19:46:58.509Z,101773.59
2019-06-08T19:49:28.308Z,101777.06
2019-06-08T19:51:58.129Z,101776.66
2019-06-08T19:54:27.474Z,101767.48
2019-06-08T19:56:57.503Z,101778.87
2019-06-08T19:59:27.437Z,101786.94
2019-06-08T20:01:59.565Z,101794.84
2019-06-08T20:04:27.781Z,101796.77
2019-06-08T20:07:00.316Z,101803.09
2019-06-08T20:09:28.438Z,101805.02
2019-06-08T20:12:00.076Z,101809.19
2019-06-08T20:14:28.555Z,101813.70
2019-06-08T20:16:57.964Z,101819.87
2019-06-08T20:19:27.945Z,101816.81
2019-06-08T20:21:58.310Z,101823.52
2019-06-08T20:24:27.957Z,101831.41
2019-06-08T20:26:57.279Z,101821.65
2019-06-08T20:29:28.264Z,101827.52
2019-06-08T20:31:58.310Z,101834.34
2019-06-08T20:34:27.770Z,101845.25
2019-06-08T20:36:58.304Z,101837.85
2019-06-08T20:39:27.873Z,101847.48
2019-06-08T20:41:58.551Z,101849.95
2019-06-08T20:44:30.263Z,101852.80
2019-06-08T20:46:58.957Z,101847.00
2019-06-08T20:49:28.138Z,101850.75
2019-06-08T20:52:00.109Z,101859.99
2019-06-08T20:54:28.211Z,101860.75
2019-06-08T20:57:03.201Z,101861.84
2019-06-08T20:59:34.288Z,101858.70
2019-06-08T21:02:03.614Z,101860.92
2019-06-08T21:04:32.808Z,101869.50
2019-06-08T21:07:02.011Z,101872.44
2019-06-08T21:09:31.167Z,101858.30
2019-06-08T21:12:00.355Z,101871.02
2019-06-08T21:14:29.563Z,101865.02
2019-06-08T21:16:58.843Z,101868.73
2019-06-08T21:19:28.250Z,101870.48
2019-06-08T21:21:59.293Z,101878.25
2019-06-08T21:24:28.926Z,101879.23
2019-06-08T21:27:00.632Z,101880.50
2019-06-08T21:29:46.935Z,101881.44
2019-06-08T21:32:02.313Z,101883.50
2019-06-08T21:34:30.784Z,101881.66
2019-06-08T21:37:00.891Z,101887.73
2019-06-08T21:39:30.305Z,101883.84
2019-06-08T21:42:02.875Z,101886.95
2019-06-08T21:44:30.359Z,101899.80
2019-06-08T21:47:01.460Z,101889.01
2019-06-08T21:49:30.563Z,101899.23
2019-06-08T21:52:01.346Z,101900.36
2019-06-08T21:54:31.732Z,101892.18
2019-06-08T21:57:01.224Z,101904.80
2019-06-08T21:59:30.738Z,101902.72
2019-06-08T22:02:02.658Z,101895.11
2019-06-08T22:04:30.964Z,101900.91
2019-06-08T22:07:01.627Z,101903.03
2019-06-08T22:09:31.032Z,101912.27
2019-06-08T22:12:00.999Z,101909.48
2019-06-08T22:14:30.207Z,101908.22
2019-06-08T22:17:01.323Z,101910.51
2019-06-08T22:19:30.390Z,101913.91
2019-06-08T22:22:01.780Z,101915.67
2019-06-08T22:24:30.460Z,101922.41
2019-06-08T22:27:01.735Z,101923.75
2019-06-08T22:29:30.526Z,101917.23
2019-06-08T22:31:59.829Z,101918.57
2019-06-08T22:34:28.986Z,101925.72
2019-06-08T22:36:59.952Z,101923.19
2019-06-08T22:39:28.984Z,101933.87
2019-06-08T22:41:59.583Z,101935.58
2019-06-08T22:44:29.153Z,101938.33
2019-06-08T22:47:00.172Z,101939.52
2019-06-08T22:49:29.280Z,101940.72
2019-06-08T22:52:00.825Z,101938.49
2019-06-08T22:54:29.413Z,101945.37
2019-06-08T22:57:01.366Z,101944.97
2019-06-08T22:59:29.492Z,101942.88
2019-06-08T23:02:02.234Z,101944.94
2019-06-08T23:04:31.148Z,101953.34
2019-06-08T23:07:03.154Z,101946.88
2019-06-08T23:09:31.191Z,101949.88
2019-06-08T23:12:03.051Z,101952.09
2019-06-08T23:14:31.251Z,101950.16
2019-06-08T23:17:02.292Z,101957.97
2019-06-08T23:19:31.392Z,101953.69
2019-06-08T23:22:01.309Z,101957.97
2019-06-08T23:24:31.618Z,101956.55
2019-06-08T23:27:02.040Z,101956.52
2019-06-08T23:29:31.382Z,101958.25
2019-06-08T23:32:02.641Z,101958.31
2019-06-08T23:34:31.559Z,101954.80
2019-06-08T23:37:05.573Z,101954.97
2019-06-08T23:39:31.721Z,101959.73
2019-06-08T23:42:01.866Z,101957.48
2019-06-08T23:44:31.051Z,101957.92
2019-06-08T23:47:01.610Z,101959.88
2019-06-08T23:49:31.126Z,101961.27
2019-06-08T23:52:02.247Z,101958.64
2019-06-08T23:54:31.473Z,101951.90
2019-06-08T23:57:01.142Z,101960.62
2019-06-08T23:59:30.371Z,101960.89
